Time;durP1;ratioP1;P1;durP2;ratioP2;P2;SDS_P1;SDS_P2;PMS_P1;PMS_P2;Temp;Humidity;BMP_temperature;BMP_pressure;BME280_temperature;BME280_humidity;BME280_pressure;Samples;Min_cycle;Max_cycle;Signal;HPM_P1;HPM_P2
2023/09/04 00:02:09;;;;;;;8.75;5.20;;;;;;;16.39;100.00;102725.69;5016566;28;20132;-64
2023/09/04 00:04:35;;;;;;;8.60;5.75;;;;;;;16.37;100.00;102722.34;5028674;28;20045;-65
2023/09/04 00:07:02;;;;;;;7.55;5.30;;;;;;;16.39;100.00;102723.06;5008532;28;20440;-64
2023/09/04 00:09:29;;;;;;;7.65;4.93;;;;;;;16.39;100.00;102731.00;5009928;28;20061;-66
2023/09/04 00:11:55;;;;;;;8.98;4.88;;;;;;;16.37;100.00;102725.84;5006946;28;20052;-65
2023/09/04 00:14:22;;;;;;;6.35;5.10;;;;;;;16.39;100.00;102728.34;5013884;28;20057;-64
2023/09/04 00:16:48;;;;;;;7.80;5.10;;;;;;;16.39;100.00;102721.22;5007661;28;20049;-66
2023/09/04 00:19:15;;;;;;;13.40;5.85;;;;;;;16.36;100.00;102718.84;5027950;28;20073;-64
2023/09/04 00:21:41;;;;;;;7.93;5.28;;;;;;;16.35;100.00;102716.38;5027568;28;20049;-66
2023/09/04 00:24:08;;;;;;;5.97;4.63;;;;;;;16.32;100.00;102714.81;5022654;28;20053;-65
2023/09/04 00:26:35;;;;;;;6.25;4.80;;;;;;;16.31;100.00;102717.63;5023498;28;20467;-66
2023/09/04 00:29:02;;;;;;;8.10;5.10;;;;;;;16.23;100.00;102710.38;5006235;28;20682;-64
2023/09/04 00:31:28;;;;;;;9.95;5.13;;;;;;;16.18;100.00;102717.88;5026214;28;20046;-64
2023/09/04 00:33:55;;;;;;;5.90;4.53;;;;;;;16.13;100.00;102710.34;5022744;28;20053;-65
2023/09/04 00:36:21;;;;;;;8.35;4.82;;;;;;;16.09;100.00;102705.44;5019591;28;20080;-64
2023/09/04 00:38:48;;;;;;;5.75;4.90;;;;;;;16.11;100.00;102712.28;5028447;28;20490;-65
2023/09/04 00:41:15;;;;;;;7.88;5.35;;;;;;;16.12;100.00;102713.13;5012197;28;20049;-65
2023/09/04 00:43:44;;;;;;;6.80;4.97;;;;;;;16.08;100.00;102715.19;4986917;28;20300;-65
2023/09/04 00:46:11;;;;;;;7.45;4.88;;;;;;;16.05;100.00;102712.81;5009225;28;20494;-65
2023/09/04 00:48:38;;;;;;;11.75;5.30;;;;;;;16.07;100.00;102707.38;5028130;28;20051;-64
2023/09/04 00:51:05;;;;;;;8.05;5.63;;;;;;;16.05;100.00;102712.81;5024304;28;20141;-65
2023/09/04 00:53:33;;;;;;;10.77;5.60;;;;;;;16.04;100.00;102711.16;5018267;28;20545;-64
2023/09/04 00:56:02;;;;;;;8.98;5.60;;;;;;;16.05;100.00;102702.22;5021212;28;20085;-64
2023/09/04 00:58:28;;;;;;;;;;;;;;;16.08;100.00;102699.31;5006385;28;20072;-65
2023/09/04 01:00:55;;;;;;;6.93;5.13;;;;;;;16.08;100.00;102699.31;5018810;28;20016;-65
2023/09/04 01:03:21;;;;;;;7.88;5.57;;;;;;;16.09;100.00;102701.00;5016073;28;20056;-65
2023/09/04 01:05:48;;;;;;;6.80;4.75;;;;;;;16.08;100.00;102693.19;5018612;28;20127;-65
2023/09/04 01:08:16;;;;;;;8.98;5.68;;;;;;;16.09;100.00;102700.16;5010016;28;20518;-65
2023/09/04 01:11:03;;;;;;;7.30;5.22;;;;;;;16.05;100.00;102696.94;5022313;28;20506;-65
2023/09/04 01:13:40;;;;;;;9.10;5.30;;;;;;;15.98;100.00;102696.66;5023082;28;20539;-64
2023/09/04 01:16:07;;;;;;;7.90;5.40;;;;;;;15.94;100.00;102692.59;5001512;28;20140;-64
2023/09/04 01:18:35;;;;;;;7.90;6.00;;;;;;;15.91;100.00;102699.97;5013249;28;20137;-65
2023/09/04 01:21:05;;;;;;;7.85;5.85;;;;;;;15.86;100.00;102692.47;5019891;28;20057;-65
2023/09/04 01:23:32;;;;;;;6.93;5.57;;;;;;;15.84;100.00;102696.19;5009625;28;20104;-65
2023/09/04 01:26:13;;;;;;;8.55;6.30;;;;;;;15.82;100.00;102694.53;5010183;28;20049;-64
2023/09/04 01:29:13;;;;;;;7.85;5.47;;;;;;;15.79;100.00;102700.06;5021666;28;20107;-65
2023/09/04 01:31:56;;;;;;;10.77;6.00;;;;;;;15.74;100.00;102693.50;5011937;28;20053;-66
2023/09/04 01:34:29;;;;;;;7.32;5.80;;;;;;;15.76;100.00;102694.25;5027046;28;20403;-65
2023/09/04 01:36:57;;;;;;;6.70;5.40;;;;;;;15.76;100.00;102689.78;5003453;28;20045;-64
2023/09/04 01:39:25;;;;;;;10.20;6.38;;;;;;;15.78;100.00;102685.19;5008857;28;20057;-64
2023/09/04 01:41:52;;;;;;;9.32;6.60;;;;;;;15.75;100.00;102692.56;5017924;28;20050;-65
2023/09/04 01:44:19;;;;;;;12.93;6.80;;;;;;;15.73;100.00;102697.97;5018777;28;20132;-64
2023/09/04 01:46:45;;;;;;;11.05;6.72;;;;;;;15.70;100.00;102703.53;5008523;28;20844;-65
2023/09/04 01:49:12;;;;;;;9.65;6.82;;;;;;;15.68;100.00;102699.31;5001110;28;20115;-64
2023/09/04 01:51:39;;;;;;;8.88;6.93;;;;;;;15.66;100.00;102699.47;5010740;28;20085;-64
2023/09/04 01:54:05;;;;;;;11.88;6.70;;;;;;;15.63;100.00;102697.91;5010306;28;20136;-65
2023/09/04 01:56:32;;;;;;;11.05;7.40;;;;;;;15.60;100.00;102695.56;5016967;28;20061;-65
2023/09/04 01:58:58;;;;;;;11.00;7.53;;;;;;;15.57;100.00;102689.69;5016815;28;20463;-64
2023/09/04 02:01:24;;;;;;;10.05;7.47;;;;;;;15.59;100.00;102701.81;5016123;28;20056;-65
2023/09/04 02:03:56;;;;;;;9.55;7.72;;;;;;;15.58;100.00;102697.50;5009769;28;20045;-65
2023/09/04 02:06:23;;;;;;;9.50;6.95;;;;;;;15.54;100.00;102693.44;5000203;28;20490;-65
2023/09/04 02:08:50;;;;;;;8.80;6.93;;;;;;;15.51;100.00;102695.50;5026201;28;20067;-65
2023/09/04 02:11:16;;;;;;;11.68;6.85;;;;;;;15.51;100.00;102699.00;5012367;28;20111;-65
2023/09/04 02:13:46;;;;;;;8.10;6.53;;;;;;;15.51;100.00;102696.34;5014182;28;20550;-64
2023/09/04 02:16:12;;;;;;;10.98;7.20;;;;;;;15.47;100.00;102696.75;5024916;28;20136;-65
2023/09/04 02:18:39;;;;;;;7.78;6.47;;;;;;;15.46;100.00;102695.91;5005443;28;20041;-64
2023/09/04 02:21:06;;;;;;;9.95;7.00;;;;;;;15.45;100.00;102693.41;5012403;28;20085;-65
2023/09/04 02:23:33;;;;;;;10.07;7.50;;;;;;;15.39;100.00;102692.13;5019686;28;20071;-64
2023/09/04 02:25:59;;;;;;;11.13;7.78;;;;;;;15.37;100.00;102694.06;5004223;28;20409;-65
2023/09/04 02:28:26;;;;;;;11.90;7.80;;;;;;;15.35;100.00;102691.53;5018620;28;20660;-65
2023/09/04 02:30:52;;;;;;;13.93;7.18;;;;;;;15.33;100.00;102692.66;5014671;28;20049;-65
2023/09/04 02:33:19;;;;;;;13.40;7.28;;;;;;;15.31;100.00;102690.13;5013036;28;20419;-67
2023/09/04 02:35:45;;;;;;;10.15;7.53;;;;;;;15.29;100.00;102688.56;5001016;28;20109;-65
2023/09/04 02:38:12;;;;;;;10.70;7.88;;;;;;;15.28;100.00;102695.69;5012892;28;20574;-64
2023/09/04 02:40:38;;;;;;;11.63;7.57;;;;;;;15.28;100.00;102686.91;5007876;28;20037;-65
2023/09/04 02:43:05;;;;;;;10.98;7.45;;;;;;;15.26;100.00;102684.41;5015445;28;20058;-65
2023/09/04 02:45:32;;;;;;;11.07;7.43;;;;;;;15.26;100.00;102680.94;5030524;28;20077;-64
2023/09/04 02:47:59;;;;;;;11.82;7.18;;;;;;;15.23;100.00;102688.16;4993237;28;20053;-64
2023/09/04 02:50:25;;;;;;;9.52;6.95;;;;;;;15.22;100.00;102677.69;5021056;28;20139;-65
2023/09/04 02:52:52;;;;;;;10.38;7.53;;;;;;;15.21;100.00;102682.16;4996488;28;20076;-64
2023/09/04 02:55:18;;;;;;;8.15;7.10;;;;;;;15.21;100.00;102673.38;5024208;28;20143;-64
2023/09/04 02:57:45;;;;;;;8.70;7.40;;;;;;;15.20;100.00;102672.53;5005996;28;20120;-64
2023/09/04 03:00:13;;;;;;;10.63;7.90;;;;;;;15.18;100.00;102674.47;5024261;28;20073;-64
2023/09/04 03:02:39;;;;;;;10.33;7.80;;;;;;;15.16;100.00;102668.50;5024992;28;20083;-64
2023/09/04 03:05:06;;;;;;;10.63;7.55;;;;;;;15.12;100.00;102669.72;5006634;28;20132;-65
2023/09/04 03:07:33;;;;;;;9.13;8.07;;;;;;;15.09;100.00;102658.56;5012305;28;20042;-65
2023/09/04 03:10:01;;;;;;;9.15;7.07;;;;;;;15.05;100.00;102658.00;5000071;28;20494;-64
2023/09/04 03:12:30;;;;;;;9.03;7.07;;;;;;;15.07;100.00;102655.22;5016491;28;20049;-66
2023/09/04 03:15:01;;;;;;;11.70;7.97;;;;;;;15.05;100.00;102658.00;5016982;28;20041;-64
2023/09/04 03:17:28;;;;;;;9.75;8.02;;;;;;;15.04;100.00;102656.34;5019088;28;20129;-64
2023/09/04 03:19:56;;;;;;;10.25;7.97;;;;;;;15.02;100.00;102653.81;5010338;28;20128;-64
2023/09/04 03:22:24;;;;;;;11.18;8.55;;;;;;;15.03;100.00;102652.00;5013236;28;20144;-65
2023/09/04 03:24:51;;;;;;;9.00;7.10;;;;;;;15.02;100.00;102656.47;5003288;28;20085;-65
2023/09/04 03:27:18;;;;;;;10.45;7.53;;;;;;;15.00;100.00;102647.81;5014796;28;20367;-65
2023/09/04 03:29:44;;;;;;;11.60;7.70;;;;;;;14.95;100.00;102650.00;5010747;28;20058;-64
2023/09/04 03:32:11;;;;;;;11.88;7.63;;;;;;;14.96;100.00;102654.34;5003187;28;20494;-66
2023/09/04 03:34:38;;;;;;;9.38;7.55;;;;;;;14.94;100.00;102653.63;5019259;28;20542;-64
2023/09/04 03:37:05;;;;;;;10.38;7.32;;;;;;;14.93;100.00;102657.22;5018451;28;20483;-64
2023/09/04 03:39:37;;;;;;;9.90;7.82;;;;;;;14.93;100.00;102656.41;4980477;28;20058;-65
2023/09/04 03:42:04;;;;;;;10.35;7.53;;;;;;;14.92;100.00;102655.56;5002500;28;20499;-64
2023/09/04 03:44:31;;;;;;;9.50;7.43;;;;;;;14.90;100.00;102652.22;4999039;28;20054;-65
2023/09/04 03:46:58;;;;;;;11.00;7.70;;;;;;;14.89;100.00;102655.81;5016417;28;20085;-64
2023/09/04 03:49:24;;;;;;;9.85;7.53;;;;;;;14.92;100.00;102645.00;5005020;28;20077;-64
2023/09/04 03:51:51;;;;;;;9.75;7.90;;;;;;;14.94;100.00;102645.72;5012634;28;20128;-64
2023/09/04 03:54:18;;;;;;;9.32;7.90;;;;;;;14.96;100.00;102650.88;5013393;28;20113;-66
2023/09/04 03:56:44;;;;;;;12.63;8.63;;;;;;;14.96;100.00;102650.88;4999955;28;20042;-64
2023/09/04 03:59:11;;;;;;;11.45;8.50;;;;;;;15.00;100.00;102654.91;5011047;28;20097;-64
2023/09/04 04:01:37;;;;;;;9.98;7.63;;;;;;;14.99;100.00;102642.66;5017745;28;20053;-65
2023/09/04 04:04:04;;;;;;;12.52;8.07;;;;;;;15.05;100.00;102650.06;5016293;28;20041;-65
2023/09/04 04:06:30;;;;;;;9.88;8.40;;;;;;;15.05;100.00;102646.59;4998978;28;20049;-65
2023/09/04 04:08:57;;;;;;;10.75;9.20;;;;;;;15.02;100.00;102643.25;5007255;28;20058;-64
2023/09/04 04:11:23;;;;;;;11.95;8.55;;;;;;;15.05;100.00;102646.59;5012163;28;20049;-64
2023/09/04 04:13:50;;;;;;;10.80;8.48;;;;;;;15.00;100.00;102633.78;5017666;28;20060;-65
2023/09/04 04:16:16;;;;;;;15.13;8.27;;;;;;;14.98;100.00;102631.25;5014854;28;20871;-66
2023/09/04 04:18:43;;;;;;;11.57;8.82;;;;;;;14.96;100.00;102630.56;5011780;28;20049;-64
2023/09/04 04:21:09;;;;;;;11.00;9.05;;;;;;;14.90;100.00;102627.63;5013828;28;20045;-64
2023/09/04 04:23:36;;;;;;;9.82;8.38;;;;;;;14.86;100.00;102631.47;5007645;28;20800;-65
2023/09/04 04:26:03;;;;;;;11.98;8.57;;;;;;;14.82;100.00;102628.25;5022406;28;20147;-65
2023/09/04 04:28:29;;;;;;;9.85;7.97;;;;;;;14.81;100.00;102627.41;5020898;28;20050;-65
2023/09/04 04:31:00;;;;;;;9.98;8.32;;;;;;;14.78;100.00;102622.41;5016024;28;20534;-64
2023/09/04 04:33:26;;;;;;;13.15;9.95;;;;;;;14.75;100.00;102633.22;5006019;28;20068;-65
2023/09/04 04:35:53;;;;;;;13.25;9.75;;;;;;;14.72;100.00;102630.00;5010888;28;20118;-65
2023/09/04 04:38:20;;;;;;;11.13;8.90;;;;;;;14.71;100.00;102633.63;5016895;28;20042;-64
2023/09/04 04:40:47;;;;;;;16.42;10.07;;;;;;;14.69;100.00;102633.72;5013968;28;20053;-64
2023/09/04 04:43:14;;;;;;;11.20;9.10;;;;;;;14.67;100.00;102637.47;5014424;28;20045;-64
2023/09/04 04:45:40;;;;;;;12.13;9.77;;;;;;;14.67;100.00;102634.84;5018516;28;20720;-64
2023/09/04 04:48:07;;;;;;;11.68;9.60;;;;;;;14.63;100.00;102632.44;5018856;28;20152;-65
2023/09/04 04:50:34;;;;;;;11.23;9.23;;;;;;;14.64;100.00;102625.34;5009594;28;20052;-65
2023/09/04 04:53:00;;;;;;;13.38;9.68;;;;;;;14.61;100.00;102628.25;5016442;28;20533;-64
2023/09/04 04:55:27;;;;;;;12.05;9.95;;;;;;;14.61;100.00;102626.44;5010547;28;20053;-65
2023/09/04 04:57:53;;;;;;;14.88;9.57;;;;;;;14.60;100.00;102632.72;5024260;28;20077;-65
2023/09/04 05:00:20;;;;;;;15.38;10.50;;;;;;;14.58;100.00;102624.09;5017912;28;20136;-64
2023/09/04 05:02:46;;;;;;;13.60;10.52;;;;;;;14.56;100.00;102631.31;5015007;28;20482;-65
2023/09/04 05:05:13;;;;;;;17.50;10.45;;;;;;;14.58;100.00;102636.44;5014505;28;20053;-64
2023/09/04 05:07:41;;;;;;;12.95;10.07;;;;;;;14.62;100.00;102627.28;5010544;28;20062;-65
2023/09/04 05:10:09;;;;;;;11.95;10.27;;;;;;;14.61;100.00;102621.16;5015317;28;20920;-64
2023/09/04 05:12:35;;;;;;;13.07;9.48;;;;;;;14.66;100.00;102627.88;5018641;28;20157;-65
2023/09/04 05:15:04;;;;;;;11.20;9.82;;;;;;;14.69;100.00;102624.97;5024735;28;20053;-65
2023/09/04 05:17:31;;;;;;;13.18;9.90;;;;;;;14.70;100.00;102622.22;5007058;28;20058;-64
2023/09/04 05:19:58;;;;;;;11.45;9.25;;;;;;;14.72;100.00;102624.72;5019905;28;20064;-64
2023/09/04 05:22:24;;;;;;;12.75;9.50;;;;;;;14.71;100.00;102615.13;5014219;28;20045;-65
2023/09/04 05:24:51;;;;;;;11.75;9.32;;;;;;;14.79;100.00;102623.22;5002520;28;20482;-66
2023/09/04 05:27:17;;;;;;;13.20;9.57;;;;;;;14.82;100.00;102617.69;5006772;28;20056;-65
2023/09/04 05:29:43;;;;;;;12.73;9.98;;;;;;;14.84;100.00;102623.69;5015083;28;20124;-64
2023/09/04 05:32:10;;;;;;;13.60;9.77;;;;;;;14.84;100.00;102623.69;5019783;28;20046;-64
2023/09/04 05:34:39;;;;;;;13.75;10.00;;;;;;;14.83;100.00;102614.06;5008121;28;20129;-64
2023/09/04 05:37:08;;;;;;;12.23;9.48;;;;;;;14.88;100.00;102619.81;5018404;28;20569;-64
2023/09/04 05:39:35;;;;;;;;;;;;;;;14.91;100.00;102618.72;4995809;28;20053;-65
2023/09/04 05:42:02;;;;;;;13.80;8.65;;;;;;;14.90;100.00;102624.97;5010905;28;20444;-65
2023/09/04 05:44:28;;;;;;;13.52;10.52;;;;;;;14.86;100.00;102624.38;5009080;28;20053;-64
2023/09/04 05:46:54;;;;;;;13.50;10.80;;;;;;;14.88;100.00;102621.59;5015057;28;20085;-64
2023/09/04 05:49:21;;;;;;;16.17;12.73;;;;;;;14.89;100.00;102625.94;5024495;28;20426;-64
2023/09/04 05:51:47;;;;;;;13.73;10.90;;;;;;;14.90;100.00;102619.69;5011545;28;20132;-64
2023/09/04 05:54:14;;;;;;;12.18;8.88;;;;;;;14.89;100.00;102615.34;5013555;28;20501;-64
2023/09/04 05:56:40;;;;;;;11.40;8.52;;;;;;;14.92;100.00;102618.59;5003755;28;20053;-64
2023/09/04 05:59:07;;;;;;;15.05;9.98;;;;;;;14.93;100.00;102608.84;5022455;28;20580;-64
2023/09/04 06:01:33;;;;;;;11.52;9.25;;;;;;;14.96;100.00;102606.78;5012611;28;20045;-66
2023/09/04 06:04:00;;;;;;;9.90;7.82;;;;;;;15.05;100.00;102621.00;5009783;28;20478;-64
2023/09/04 06:06:26;;;;;;;13.82;10.38;;;;;;;15.03;100.00;102610.56;5007305;28;20426;-65
2023/09/04 06:08:53;;;;;;;15.68;9.65;;;;;;;15.07;100.00;102610.28;5007574;28;20073;-65
2023/09/04 06:11:20;;;;;;;12.73;9.60;;;;;;;15.11;100.00;102617.84;5022840;28;20141;-65
2023/09/04 06:13:48;;;;;;;11.88;9.63;;;;;;;15.12;100.00;102613.38;4994993;28;20058;-66
2023/09/04 06:16:18;;;;;;;;;;;;;;;15.21;100.00;102617.84;5019619;28;20600;-66
2023/09/04 06:18:44;;;;;;;13.60;10.00;;;;;;;15.22;100.00;102614.25;4997127;28;20333;-65
2023/09/04 06:21:11;;;;;;;13.15;9.85;;;;;;;15.24;100.00;102620.25;5013909;28;20056;-65
2023/09/04 06:23:38;;;;;;;13.52;10.75;;;;;;;15.29;100.00;102619.84;5023157;28;20053;-66
2023/09/04 06:26:07;;;;;;;14.95;10.55;;;;;;;15.34;100.00;102621.13;5001857;28;20057;-65
2023/09/04 06:28:33;;;;;;;13.25;10.52;;;;;;;15.39;100.00;102631.31;5008835;28;20107;-65
2023/09/04 06:31:00;;;;;;;12.80;9.52;;;;;;;15.39;100.00;102626.03;4999082;28;20058;-66
2023/09/04 06:33:29;;;;;;;13.68;9.07;;;;;;;15.40;100.00;102631.16;5020087;28;20318;-65
2023/09/04 06:35:57;;;;;;;12.98;9.35;;;;;;;15.45;100.00;102628.13;4990813;28;20049;-67
2023/09/04 06:38:24;;;;;;;13.90;10.32;;;;;;;15.47;100.00;102631.47;5005023;28;20132;-65
2023/09/04 06:40:57;;;;;;;15.03;12.40;;;;;;;15.52;100.00;102631.88;5015948;28;20053;-66
2023/09/04 06:43:28;;;;;;;11.05;9.57;;;;;;;15.64;100.00;102632.63;4990104;28;20050;-65
2023/09/04 06:45:55;;;;;;;11.32;9.65;;;;;;;15.67;100.00;102631.53;5009243;28;20414;-65
2023/09/04 06:48:21;;;;;;;13.63;10.35;;;;;;;15.68;100.00;102634.03;5003065;28;20675;-65
2023/09/04 06:50:50;;;;;;;11.77;8.90;;;;;;;15.77;100.00;102635.88;5025960;28;20413;-66
2023/09/04 06:53:16;;;;;;;15.38;10.07;;;;;;;15.80;100.00;102635.63;5016857;28;20203;-67
2023/09/04 06:55:43;;;;;;;13.52;10.68;;;;;;;15.83;100.00;102639.78;5012983;28;20470;-65
2023/09/04 06:58:10;;;;;;;12.80;10.43;;;;;;;15.88;100.00;102632.28;5008729;28;20041;-65
2023/09/04 07:00:36;;;;;;;13.05;10.27;;;;;;;15.91;100.00;102631.16;4992891;28;20064;-67
2023/09/04 07:03:04;;;;;;;16.63;10.93;;;;;;;15.96;100.00;102628.97;5016810;28;20133;-65
2023/09/04 07:05:31;;;;;;;10.90;9.65;;;;;;;15.99;100.00;102626.03;5008022;28;20054;-66
2023/09/04 07:07:58;;;;;;;12.00;9.73;;;;;;;16.03;100.00;102630.06;5021333;28;20077;-65
2023/09/04 07:10:24;;;;;;;16.35;11.18;;;;;;;16.07;100.00;102635.91;5011115;28;20502;-66
2023/09/04 07:12:51;;;;;;;13.88;11.30;;;;;;;16.09;100.00;102634.81;5013227;28;20065;-65
2023/09/04 07:15:18;;;;;;;13.52;10.52;;;;;;;16.15;100.00;102641.34;5003987;28;20140;-66
2023/09/04 07:17:45;;;;;;;12.23;10.10;;;;;;;16.19;100.00;102638.31;5018204;28;20085;-65
2023/09/04 07:20:12;;;;;;;13.60;10.60;;;;;;;16.21;100.00;102630.22;5024757;28;20057;-66
2023/09/04 07:22:38;;;;;;;12.57;10.27;;;;;;;16.28;100.00;102631.31;5019769;28;20045;-65
2023/09/04 07:25:05;;;;;;;14.07;10.98;;;;;;;16.34;100.00;102630.75;5023315;28;20150;-66
2023/09/04 07:27:32;;;;;;;12.43;10.27;;;;;;;16.41;100.00;102618.63;5020165;28;20080;-66
2023/09/04 07:29:58;;;;;;;15.45;10.73;;;;;;;16.44;100.00;102619.34;4996760;28;20049;-66
2023/09/04 07:32:25;;;;;;;13.07;11.23;;;;;;;16.48;100.00;102631.31;5014507;28;20077;-66
2023/09/04 07:34:56;;;;;;;12.13;10.82;;;;;;;16.51;100.00;102629.22;5002628;28;20057;-66
2023/09/04 07:37:26;;;;;;;14.63;10.70;;;;;;;16.60;100.00;102635.47;5024627;28;20054;-66
2023/09/04 07:39:53;;;;;;;15.20;11.25;;;;;;;16.61;100.00;102638.00;4999930;28;20100;-66
2023/09/04 07:42:21;;;;;;;16.67;11.43;;;;;;;16.65;100.00;102633.25;5005949;28;20049;-66
2023/09/04 07:44:48;;;;;;;11.18;9.35;;;;;;;16.73;100.00;102627.22;5024053;28;20049;-65
2023/09/04 07:47:14;;;;;;;15.68;9.88;;;;;;;16.76;100.00;102630.44;5009446;28;20499;-65
2023/09/04 07:49:41;;;;;;;11.38;8.85;;;;;;;16.82;100.00;102638.81;5021717;28;20053;-66
2023/09/04 07:52:07;;;;;;;13.30;10.65;;;;;;;16.88;100.00;102638.25;5012319;28;20077;-66
2023/09/04 07:54:34;;;;;;;13.18;10.50;;;;;;;16.94;100.00;102633.22;5017512;28;20045;-66
2023/09/04 07:57:04;;;;;;;14.52;11.07;;;;;;;16.98;100.00;102639.88;5006764;28;20634;-65
2023/09/04 07:59:30;;;;;;;15.48;11.68;;;;;;;17.07;100.00;102629.38;5010720;28;20050;-65
2023/09/04 08:01:57;;;;;;;15.43;10.95;;;;;;;17.11;100.00;102628.97;5022137;28;20048;-66
2023/09/04 08:04:24;;;;;;;13.93;10.02;;;;;;;17.17;100.00;102620.44;5013475;28;20112;-66
2023/09/04 08:06:51;;;;;;;14.77;10.18;;;;;;;17.31;100.00;102620.94;5008427;28;20041;-66
2023/09/04 08:09:17;;;;;;;13.93;11.25;;;;;;;17.39;100.00;102623.69;5004323;28;20057;-66
2023/09/04 08:11:44;;;;;;;13.77;10.88;;;;;;;17.52;100.00;102623.31;5024804;28;21107;-66
2023/09/04 08:14:10;;;;;;;12.55;10.13;;;;;;;17.67;100.00;102624.50;5008994;28;20447;-66
2023/09/04 08:16:37;;;;;;;12.10;10.00;;;;;;;17.90;100.00;102632.06;5019854;28;20100;-66
2023/09/04 08:19:03;;;;;;;10.55;7.63;;;;;;;18.12;100.00;102620.97;5018517;28;20065;-66
2023/09/04 08:21:34;;;;;;;12.27;8.80;;;;;;;18.40;100.00;102625.34;5010568;28;20068;-67
2023/09/04 08:24:01;;;;;;;9.00;6.90;;;;;;;18.64;100.00;102620.22;5013998;28;20057;-65
2023/09/04 08:26:29;;;;;;;11.65;9.13;;;;;;;18.94;100.00;102621.59;5015161;28;20128;-66
2023/09/04 08:28:56;;;;;;;15.88;9.90;;;;;;;19.17;100.00;102613.06;5026580;28;20150;-66
2023/09/04 08:31:22;;;;;;;12.02;8.95;;;;;;;19.40;100.00;102617.81;5020100;28;20252;-67
2023/09/04 08:33:49;;;;;;;10.15;7.97;;;;;;;19.60;100.00;102613.03;5014117;28;20053;-66
2023/09/04 08:36:15;;;;;;;7.13;5.13;;;;;;;19.87;100.00;102610.13;5025602;28;20081;-66
2023/09/04 08:38:41;;;;;;;8.32;5.40;;;;;;;20.13;100.00;102611.78;5016232;28;20522;-66
2023/09/04 08:41:10;;;;;;;11.55;5.53;;;;;;;20.35;100.00;102611.13;5025415;28;20052;-66
2023/09/04 08:43:40;;;;;;;12.18;5.68;;;;;;;20.60;100.00;102607.63;4999226;28;20046;-66
2023/09/04 08:46:07;;;;;;;9.13;6.15;;;;;;;20.85;100.00;102611.09;5020000;28;20111;-67
2023/09/04 08:48:44;;;;;;;7.30;5.75;;;;;;;21.05;100.00;102615.03;5021411;28;20055;-66
2023/09/04 08:51:11;;;;;;;8.57;5.20;;;;;;;21.23;99.34;102616.59;5024582;28;20431;-67
2023/09/04 08:53:38;;;;;;;6.45;4.10;;;;;;;21.41;96.24;102611.84;5021604;28;20081;-67
2023/09/04 08:56:04;;;;;;;10.65;4.68;;;;;;;21.60;97.60;102604.44;5008297;28;20064;-66
2023/09/04 08:58:31;;;;;;;9.13;5.22;;;;;;;21.76;94.18;102600.81;5018806;28;20704;-66
2023/09/04 09:00:58;;;;;;;9.75;4.57;;;;;;;21.87;93.77;102593.22;5004748;28;20089;-66
2023/09/04 09:03:25;;;;;;;6.05;3.85;;;;;;;22.00;90.48;102587.28;5016920;28;20065;-66
2023/09/04 09:05:55;;;;;;;8.15;4.90;;;;;;;22.14;86.57;102582.19;5019950;28;20081;-66
2023/09/04 09:08:24;;;;;;;6.53;4.38;;;;;;;22.30;87.68;102580.19;5015953;28;20493;-66
2023/09/04 09:10:52;;;;;;;9.68;4.60;;;;;;;22.46;85.52;102589.94;5018217;28;20104;-66
2023/09/04 09:13:19;;;;;;;8.73;4.40;;;;;;;22.60;86.21;102590.09;5014197;28;20058;-66
2023/09/04 09:15:47;;;;;;;7.65;4.45;;;;;;;22.80;85.82;102588.56;5009694;28;20686;-66
2023/09/04 09:18:33;;;;;;;10.43;5.05;;;;;;;22.94;82.74;102584.19;5021311;28;20049;-67
2023/09/04 09:21:00;;;;;;;7.47;4.20;;;;;;;23.07;83.78;102583.56;5019854;28;20085;-67
2023/09/04 09:23:26;;;;;;;6.03;4.22;;;;;;;23.23;83.07;102586.03;4998015;28;20049;-67
2023/09/04 09:25:56;;;;;;;7.03;4.78;;;;;;;23.41;82.53;102580.25;5012588;28;20069;-66
2023/09/04 09:28:22;;;;;;;6.82;4.65;;;;;;;23.57;77.91;102587.22;5019455;28;20053;-66
2023/09/04 09:30:50;;;;;;;6.88;4.40;;;;;;;23.64;77.01;102584.63;5016751;28;20473;-67
2023/09/04 09:33:20;;;;;;;8.10;4.63;;;;;;;23.83;76.72;102588.53;5026748;28;20057;-66
2023/09/04 09:35:47;;;;;;;10.45;4.68;;;;;;;23.97;75.65;102590.34;5009832;28;20144;-66
2023/09/04 09:38:13;;;;;;;6.95;4.13;;;;;;;24.10;75.33;102581.56;5011791;28;20050;-67
2023/09/04 09:40:40;;;;;;;12.23;4.22;;;;;;;24.22;75.86;102584.53;5019952;28;20139;-66
2023/09/04 09:43:07;;;;;;;9.32;4.70;;;;;;;24.37;74.05;102579.09;5018889;28;20479;-67
2023/09/04 09:45:34;;;;;;;9.48;4.15;;;;;;;24.57;73.93;102581.94;5009298;28;20482;-66
2023/09/04 09:48:10;;;;;;;6.22;4.15;;;;;;;24.70;71.69;102584.69;5009201;28;20053;-66
2023/09/04 09:50:37;;;;;;;7.88;4.07;;;;;;;24.91;71.41;102586.44;5021429;28;20429;-66
2023/09/04 09:53:04;;;;;;;7.63;4.10;;;;;;;25.11;72.13;102583.00;5005948;28;20049;-66
2023/09/04 09:55:33;;;;;;;9.52;4.10;;;;;;;25.19;71.67;102577.47;5021669;28;20084;-66
2023/09/04 09:58:01;;;;;;;7.55;4.10;;;;;;;25.32;71.30;102574.00;5004429;28;20052;-66
2023/09/04 10:00:28;;;;;;;6.78;4.40;;;;;;;25.48;68.81;102567.44;5012433;28;20099;-67
2023/09/04 10:02:54;;;;;;;9.40;4.25;;;;;;;25.61;70.06;102570.16;5015840;28;20108;-66
2023/09/04 10:05:23;;;;;;;7.20;3.75;;;;;;;25.77;66.46;102571.63;5017671;28;20054;-66
2023/09/04 10:07:57;;;;;;;5.72;3.60;;;;;;;25.97;70.11;102571.66;5003837;28;20057;-66
2023/09/04 10:10:24;;;;;;;8.23;4.10;;;;;;;26.03;64.17;102571.66;5021340;28;20076;-66
2023/09/04 10:12:59;;;;;;;8.95;4.00;;;;;;;26.09;61.68;102563.78;5013475;28;20076;-67
2023/09/04 10:15:28;;;;;;;5.63;3.40;;;;;;;26.22;63.86;102564.59;4998407;28;20063;-67
2023/09/04 10:18:14;;;;;;;7.75;3.72;;;;;;;26.36;62.63;102549.25;5024837;28;20045;-66
2023/09/04 10:20:41;;;;;;;4.80;3.50;;;;;;;26.54;59.83;102551.31;5011414;28;20123;-67
2023/09/04 10:23:12;;;;;;;3.53;2.70;;;;;;;26.80;65.43;102553.09;5012220;28;20571;-66
2023/09/04 10:25:57;;;;;;;5.60;3.42;;;;;;;26.95;57.52;102557.38;5014861;28;20050;-67
2023/09/04 10:28:31;;;;;;;5.80;3.83;;;;;;;27.13;57.76;102562.03;5007416;28;20119;-67
2023/09/04 10:31:10;;;;;;;5.75;3.60;;;;;;;27.18;56.27;102560.38;5006037;28;20072;-66
2023/09/04 10:33:38;;;;;;;7.32;3.80;;;;;;;27.43;56.73;102556.94;5021445;28;20100;-66
2023/09/04 10:36:05;;;;;;;5.80;3.33;;;;;;;27.59;56.82;102556.41;5017894;28;20120;-66
2023/09/04 10:38:33;;;;;;;6.68;3.70;;;;;;;27.76;56.95;102556.69;5006172;28;20099;-66
2023/09/04 10:41:00;;;;;;;6.50;3.90;;;;;;;27.87;53.97;102554.31;5011017;28;20458;-66
2023/09/04 10:43:40;;;;;;;7.23;4.03;;;;;;;27.97;54.37;102551.97;5005865;28;20073;-66
2023/09/04 10:46:09;;;;;;;4.65;3.28;;;;;;;28.18;56.16;102551.56;5020651;28;20061;-66
2023/09/04 10:48:49;;;;;;;5.68;3.30;;;;;;;28.36;54.52;102537.28;5015886;28;20060;-68
2023/09/04 10:51:34;;;;;;;4.03;3.25;;;;;;;28.54;52.31;102535.66;5011287;28;20069;-66
2023/09/04 10:54:03;;;;;;;5.32;3.72;;;;;;;28.69;52.56;102529.88;5005091;28;20119;-66
2023/09/04 10:57:00;;;;;;;6.88;3.65;;;;;;;28.80;52.17;102534.50;5012664;28;20068;-67
2023/09/04 10:59:27;;;;;;;5.57;3.13;;;;;;;28.86;50.80;102530.09;5008450;28;20049;-68
2023/09/04 11:01:54;;;;;;;5.63;3.50;;;;;;;28.98;51.14;102529.06;5020567;28;20188;-67
2023/09/04 11:04:36;;;;;;;5.22;3.15;;;;;;;29.16;51.23;102530.91;5025314;28;20064;-67
2023/09/04 11:07:20;;;;;;;6.25;3.35;;;;;;;29.20;50.99;102515.06;5001051;28;20136;-66
2023/09/04 11:09:48;;;;;;;4.80;3.25;;;;;;;29.32;51.38;102504.28;5005372;28;20077;-65
2023/09/04 11:12:19;;;;;;;6.40;3.17;;;;;;;29.34;50.56;102503.03;5010308;28;20580;-65
2023/09/04 11:14:47;;;;;;;7.20;3.45;;;;;;;29.31;49.64;102495.38;5025981;28;20227;-64
2023/09/04 11:17:16;;;;;;;5.47;3.80;;;;;;;29.30;49.58;102491.00;5010584;28;20069;-67
2023/09/04 11:19:45;;;;;;;6.88;3.83;;;;;;;29.35;50.55;102491.16;5014657;28;20092;-64